Time,TemperatureF,DewpointF,PressureIn,WindDirection,WindDirectionDegrees,WindSpeedMPH,WindSpeedGustMPH,Humidity,HourlyPrecipIn,Conditions,Clouds,dailyrainin,SoftwareType,DateUTC
2013-02-22 03:45:00,23.0,13.7,30.15,NE,45,4.2,-999.0,67,-99.99,,,0.00,Acu-Link.com,2013-02-22 08:45:00,
2013-02-22 04:22:00,22.8,6.1,30.15,NE,45,2.7,-999.0,48,-99.99,,,0.00,Acu-Link.com,2013-02-22 09:22:00,
2013-02-22 05:11:00,22.5,-32.2,30.16,NNE,22,2.7,-999.0,7,-99.99,,,0.00,Acu-Link.com,2013-02-22 10:11:00,
2013-02-22 05:31:00,22.5,-53.4,30.18,NW,315,2.7,-999.0,2,-99.99,,,0.00,Acu-Link.com,2013-02-22 10:31:00,
2013-02-22 05:46:00,22.3,-64.1,30.19,NW,315,0.0,-999.0,1,-99.99,,,0.00,Acu-Link.com,2013-02-22 10:46:00,
2013-02-22 06:01:00,22.3,-64.1,30.20,NNW,337,0.0,-999.0,1,-99.99,,,0.00,Acu-Link.com,2013-02-22 11:01:00,
2013-02-22 06:17:00,21.9,-64.4,30.22,NNW,337,0.0,-999.0,1,-99.99,,,0.00,Acu-Link.com,2013-02-22 11:17:00,
2013-02-22 06:32:00,21.9,-64.4,30.21,NNW,337,1.1,-999.0,1,-99.99,,,0.00,Acu-Link.com,2013-02-22 11:32:00,
2013-02-22 06:48:00,21.9,-64.4,30.21,NNW,337,2.2,-999.0,1,-99.99,,,0.00,Acu-Link.com,2013-02-22 11:48:00,
2013-02-22 07:03:00,22.1,-64.3,30.21,NNW,337,2.2,-999.0,1,-99.99,,,0.00,Acu-Link.com,2013-02-22 12:03:00,
2013-02-22 07:18:00,22.3,-64.1,30.20,NNW,337,0.0,-999.0,1,-99.99,,,0.00,Acu-Link.com,2013-02-22 12:18:00,
2013-02-22 07:33:00,23.2,-63.6,30.22,NE,45,2.7,-999.0,1,-99.99,,,0.00,Acu-Link.com,2013-02-22 12:33:00,
2013-02-22 07:50:00,24.1,-63.0,30.22,NE,45,2.2,-999.0,1,-99.99,,,0.00,Acu-Link.com,2013-02-22 12:50:00,
2013-02-22 08:05:00,24.8,-62.6,30.24,North,0,2.7,-999.0,1,-99.99,,,0.00,Acu-Link.com,2013-02-22 13:05:00,
2013-02-22 08:21:00,25.2,-62.3,30.22,NE,45,2.2,-999.0,1,-99.99,,,0.00,Acu-Link.com,2013-02-22 13:21:00,
2013-02-22 08:39:00,25.7,-62.0,30.23,NNE,22,2.2,-999.0,1,-99.99,,,0.00,Acu-Link.com,2013-02-22 13:39:00,
2013-02-22 08:55:00,27.0,21.4,30.24,West,270,2.7,-999.0,79,-99.99,,,0.00,Acu-Link.com,2013-02-22 13:55:00,
2013-02-22 09:10:00,27.5,-60.9,30.24,West,270,3.2,-999.0,1,-99.99,,,0.00,Acu-Link.com,2013-02-22 14:10:00,
2013-02-22 09:35:00,28.2,-60.4,30.22,West,270,2.2,-999.0,1,-99.99,,,0.00,Acu-Link.com,2013-02-22 14:35:00,
2013-02-22 09:50:00,28.6,-60.2,30.23,NE,45,2.7,-999.0,1,-99.99,,,0.00,Acu-Link.com,2013-02-22 14:50:00,
2013-02-22 10:11:00,28.4,-60.3,30.22,NNE,22,0.0,-999.0,1,-99.99,,,0.00,Acu-Link.com,2013-02-22 15:11:00,
2013-02-22 10:27:00,31.1,-58.6,30.22,East,90,0.0,-999.0,1,-99.99,,,0.00,Acu-Link.com,2013-02-22 15:27:00,
2013-02-22 10:43:00,31.8,-58.2,30.22,NW,315,1.7,-999.0,1,-99.99,,,0.00,Acu-Link.com,2013-02-22 15:43:00,
2013-02-22 10:58:00,32.7,16.1,30.22,NW,315,0.0,-999.0,50,-99.99,,,0.00,Acu-Link.com,2013-02-22 15:58:00,
2013-02-22 11:15:00,33.6,32.8,30.23,ESE,112,0.0,-999.0,97,-99.99,,,0.00,Acu-Link.com,2013-02-22 16:15:00,
2013-02-22 11:30:00,34.2,33.7,30.22,ENE,67,3.7,-999.0,98,-99.99,,,0.00,Acu-Link.com,2013-02-22 16:30:00,
2013-02-22 11:45:00,33.6,33.1,30.22,East,90,3.7,-999.0,98,-99.99,,,0.00,Acu-Link.com,2013-02-22 16:45:00,
2013-02-22 12:01:00,34.2,33.7,30.20,NE,45,3.2,-999.0,98,-99.99,,,0.00,Acu-Link.com,2013-02-22 17:01:00,
2013-02-22 12:16:00,34.9,34.4,30.20,NE,45,5.3,-999.0,98,-99.99,,,0.00,Acu-Link.com,2013-02-22 17:16:00,
2013-02-22 12:31:00,35.6,35.1,30.19,SSE,157,0.0,-999.0,98,-99.99,,,0.00,Acu-Link.com,2013-02-22 17:31:00,
2013-02-22 12:47:00,35.1,34.6,30.19,WNW,292,1.1,-999.0,98,-99.99,,,0.00,Acu-Link.com,2013-02-22 17:47:00,
2013-02-22 13:03:00,35.6,22.7,30.17,ESE,112,2.2,-999.0,59,-99.99,,,0.00,Acu-Link.com,2013-02-22 18:03:00,
2013-02-22 13:19:00,35.8,35.3,30.16,South,180,1.7,-999.0,98,-99.99,,,0.00,Acu-Link.com,2013-02-22 18:19:00,
2013-02-22 13:34:00,36.0,35.5,30.16,East,90,2.2,-999.0,98,-99.99,,,0.00,Acu-Link.com,2013-02-22 18:34:00,
2013-02-22 13:54:00,36.7,-55.1,30.16,East,90,3.7,-999.0,1,-99.99,,,0.00,Acu-Link.com,2013-02-22 18:54:00,
2013-02-22 14:09:00,36.3,-55.4,30.16,SW,225,0.0,-999.0,1,-99.99,,,0.00,Acu-Link.com,2013-02-22 19:09:00,
2013-02-22 14:24:00,38.1,-54.3,30.14,East,90,1.7,-999.0,1,-99.99,,,0.00,Acu-Link.com,2013-02-22 19:24:00,
2013-02-22 14:39:00,37.4,-54.7,30.15,West,270,0.0,-999.0,1,-99.99,,,0.00,Acu-Link.com,2013-02-22 19:39:00,
2013-02-22 14:55:00,36.9,-55.0,30.15,ENE,67,2.7,-999.0,1,-99.99,,,0.00,Acu-Link.com,2013-02-22 19:55:00,
2013-02-22 15:10:00,36.9,-55.0,30.16,NW,315,0.0,-999.0,1,-99.99,,,0.00,Acu-Link.com,2013-02-22 20:10:00,
2013-02-22 15:25:00,36.3,34.7,30.16,West,270,0.0,-999.0,94,-99.99,,,0.00,Acu-Link.com,2013-02-22 20:25:00,
2013-02-22 15:40:00,35.6,35.1,30.17,NNE,22,1.7,-999.0,98,-99.99,,,0.00,Acu-Link.com,2013-02-22 20:40:00,
2013-02-22 15:55:00,35.6,28.1,30.16,North,0,1.7,-999.0,74,-99.99,,,0.00,Acu-Link.com,2013-02-22 20:55:00,
2013-02-22 16:11:00,35.1,-56.1,30.15,ESE,112,1.1,-999.0,1,-99.99,,,0.00,Acu-Link.com,2013-02-22 21:11:00,
2013-02-22 16:26:00,34.9,-56.3,30.16,ESE,112,1.1,-999.0,1,-99.99,,,0.00,Acu-Link.com,2013-02-22 21:26:00,
2013-02-22 16:41:00,34.5,-56.5,30.15,NW,315,1.1,-999.0,1,-99.99,,,0.00,Acu-Link.com,2013-02-22 21:41:00,
2013-02-22 16:57:00,34.2,23.3,30.15,WNW,292,0.0,-999.0,64,-99.99,,,0.00,Acu-Link.com,2013-02-22 21:57:00,
2013-02-22 17:12:00,34.0,-56.8,30.16,SE,135,0.0,-999.0,1,-99.99,,,0.00,Acu-Link.com,2013-02-22 22:12:00,
2013-02-22 17:27:00,33.6,-57.1,30.15,SSE,157,0.0,-999.0,1,-99.99,,,0.00,Acu-Link.com,2013-02-22 22:27:00,
2013-02-22 17:42:00,33.4,-57.2,30.15,West,270,0.0,-999.0,1,-99.99,,,0.00,Acu-Link.com,2013-02-22 22:42:00,
2013-02-22 17:58:00,33.3,-57.3,30.14,ENE,67,0.0,-999.0,1,-99.99,,,0.00,Acu-Link.com,2013-02-22 22:58:00,
2013-02-22 18:13:00,33.1,-57.4,30.15,NNW,337,0.0,-999.0,1,-99.99,,,0.00,Acu-Link.com,2013-02-22 23:13:00,
2013-02-22 18:28:00,33.1,-57.4,30.14,WNW,292,0.0,-999.0,1,-99.99,,,0.00,Acu-Link.com,2013-02-22 23:28:00,
2013-02-22 18:43:00,33.1,-57.4,30.14,ENE,67,0.0,-999.0,1,-99.99,,,0.00,Acu-Link.com,2013-02-22 23:43:00,
2013-02-22 18:58:00,33.1,-57.4,30.14,East,90,0.0,-999.0,1,-99.99,,,0.00,Acu-Link.com,2013-02-22 23:58:00,
2013-02-22 19:14:00,33.1,-57.4,30.14,East,90,0.0,-999.0,1,-99.99,,,0.00,Acu-Link.com,2013-02-23 00:14:00,
2013-02-22 19:29:00,33.1,-57.4,30.15,WSW,247,0.0,-999.0,1,-99.99,,,0.00,Acu-Link.com,2013-02-23 00:29:00,
2013-02-22 19:44:00,33.1,-57.4,30.15,West,270,0.0,-999.0,1,-99.99,,,0.00,Acu-Link.com,2013-02-23 00:44:00,
2013-02-22 19:59:00,32.9,-57.5,30.15,East,90,0.0,-999.0,1,-99.99,,,0.00,Acu-Link.com,2013-02-23 00:59:00,
2013-02-22 20:14:00,32.9,-57.5,30.16,SW,225,0.0,-999.0,1,-99.99,,,0.00,Acu-Link.com,2013-02-23 01:14:00,
2013-02-22 20:29:00,32.9,-57.5,30.14,ESE,112,0.0,-999.0,1,-99.99,,,0.00,Acu-Link.com,2013-02-23 01:29:00,
2013-02-22 20:45:00,32.9,-57.5,30.15,East,90,0.0,-999.0,1,-99.99,,,0.00,Acu-Link.com,2013-02-23 01:45:00,
2013-02-22 21:00:00,32.9,-39.6,30.13,East,90,0.0,-999.0,3,-99.99,,,0.00,Acu-Link.com,2013-02-23 02:00:00,
2013-02-22 21:15:00,32.9,-57.5,30.13,East,90,0.0,-999.0,1,-99.99,,,0.00,Acu-Link.com,2013-02-23 02:15:00,
2013-02-22 21:31:00,32.9,-11.0,30.14,ESE,112,0.0,-999.0,14,-99.99,,,0.00,Acu-Link.com,2013-02-23 02:31:00,
2013-02-22 21:46:00,32.9,-2.7,30.12,ESE,112,0.0,-999.0,21,-99.99,,,0.00,Acu-Link.com,2013-02-23 02:46:00,
2013-02-22 22:01:00,33.1,18.3,30.14,SW,225,0.0,-999.0,54,-99.99,,,0.00,Acu-Link.com,2013-02-23 03:01:00,
2013-02-22 22:16:00,33.3,31.5,30.12,SSE,157,0.0,-999.0,93,-99.99,,,0.00,Acu-Link.com,2013-02-23 03:16:00,
2013-02-22 22:32:00,33.3,32.8,30.12,South,180,0.0,-999.0,98,-99.99,,,0.00,Acu-Link.com,2013-02-23 03:32:00,
2013-02-22 22:47:00,33.4,32.9,30.13,SW,225,0.0,-999.0,98,-99.99,,,0.00,Acu-Link.com,2013-02-23 03:47:00,
2013-02-22 23:02:00,33.6,33.1,30.11,East,90,0.0,-999.0,98,-99.99,,,0.00,Acu-Link.com,2013-02-23 04:02:00,
2013-02-22 23:18:00,33.6,33.1,30.10,East,90,0.0,-999.0,98,-99.99,,,0.00,Acu-Link.com,2013-02-23 04:18:00,
2013-02-22 23:33:00,33.8,33.3,30.09,East,90,0.0,-999.0,98,-99.99,,,0.00,Acu-Link.com,2013-02-23 04:33:00,
2013-02-22 23:48:00,34.0,33.5,30.10,WNW,292,0.0,-999.0,98,-99.99,,,0.00,Acu-Link.com,2013-02-23 04:48:00,